Time;durP1;ratioP1;P1;durP2;ratioP2;P2;SDS_P1;SDS_P2;PMS_P1;PMS_P2;Temp;Humidity;BMP_temperature;BMP_pressure;BME280_temperature;BME280_humidity;BME280_pressure;Samples;Min_cycle;Max_cycle;Signal;HPM_P1;HPM_P2
2023/03/02 00:01:44;;;;;;;;;;;;;;;5.95;57.81;101072.47;5389817;32;43498;-68
2023/03/02 00:04:47;;;;;;;;;;;;;;;5.38;59.85;101074.63;5403308;32;37347;-75
2023/03/02 00:07:49;;;;;;;;;;;;;;;6.22;56.82;101071.31;5376145;32;35321;-76
2023/03/02 00:10:53;;;;;;;;;;;;;;;6.79;55.13;101052.38;5386333;32;35124;-77
2023/03/02 00:13:55;;;;;;;;;;;;;;;7.05;54.24;101059.88;5402068;32;35664;-75
2023/03/02 00:16:57;;;;;;;;;;;;;;;7.39;52.70;101044.53;5391077;32;35417;-69
2023/03/02 00:20:10;;;;;;;;;;;;;;;7.26;53.30;101058.69;5407037;32;36119;-78
2023/03/02 00:23:12;;;;;;;;;;;;;;;5.76;57.76;101062.16;5391011;32;35803;-77
2023/03/02 00:26:14;;;;;;;;;;;;;;;5.67;58.33;101068.34;5389255;32;45050;-67
2023/03/02 00:29:16;;;;;;;;;;;;;;;6.42;55.79;101057.19;5382055;32;37559;-68
2023/03/02 00:32:18;;;;;;;;;;;;;;;6.40;55.92;101046.75;5388684;32;34389;-77
2023/03/02 00:35:20;;;;;;;;;;;;;;;5.81;58.13;101053.44;5392978;32;36089;-76
2023/03/02 00:38:21;;;;;;;;;;;;;;;5.65;59.02;101046.59;5391154;32;35970;-75
2023/03/02 00:41:23;;;;;;;;;;;;;;;5.97;58.00;101038.50;5397518;32;35552;-69
2023/03/02 00:44:25;;;;;;;;;;;;;;;6.73;56.16;101026.34;5373029;32;35618;-67
2023/03/02 00:47:28;;;;;;;;;;;;;;;5.75;58.43;101043.03;5400793;32;35425;-67
2023/03/02 00:50:30;;;;;;;;;;;;;;;6.62;55.93;101036.91;5393907;32;35894;-75
2023/03/02 00:53:32;;;;;;;;;;;;;;;5.86;58.63;101028.16;5382220;32;34741;-76
2023/03/02 00:56:34;;;;;;;;;;;;;;;5.13;60.88;101031.34;5407797;32;35362;-68
2023/03/02 00:59:39;;;;;;;;;;;;;;;4.95;61.37;101028.84;5390155;32;35025;-77
2023/03/02 01:02:42;;;;;;;;;;;;;;;5.56;59.90;101025.81;5411001;32;34535;-68
2023/03/02 01:05:45;;;;;;;;;;;;;;;6.30;57.32;101002.50;5390666;32;46681;-67
2023/03/02 01:08:46;;;;;;;;;;;;;;;6.03;57.59;101016.72;5409486;32;35162;-76
2023/03/02 01:11:48;;;;;;;;;;;;;;;6.16;57.44;101002.66;5393951;32;35994;-67
2023/03/02 01:14:50;;;;;;;;;;;;;;;6.20;57.43;101010.44;5393761;32;35188;-76
2023/03/02 01:17:52;;;;;;;;;;;;;;;6.58;56.27;100997.81;5410897;32;35676;-68
2023/03/02 01:21:04;;;;;;;;;;;;;;;4.98;60.28;101006.25;5389752;32;37486;-68
2023/03/02 01:24:06;;;;;;;;;;;;;;;5.88;58.65;100987.25;5394467;32;36197;-69
2023/03/02 01:27:08;;;;;;;;;;;;;;;4.46;62.70;100992.66;5394378;32;35967;-68
2023/03/02 01:30:10;;;;;;;;;;;;;;;4.93;62.01;100995.00;5399345;32;34719;-67
2023/03/02 01:33:13;;;;;;;;;;;;;;;4.59;63.04;100990.00;5403885;32;36414;-68
2023/03/02 01:36:15;;;;;;;;;;;;;;;4.46;63.71;100970.09;5372097;32;44573;-76
2023/03/02 01:39:17;;;;;;;;;;;;;;;4.75;62.79;100969.94;5392192;32;35591;-68
2023/03/02 01:42:19;;;;;;;;;;;;;;;4.46;63.72;100969.25;5374931;32;36272;-76
2023/03/02 01:45:39;;;;;;;;;;;;;;;4.86;61.47;100960.31;5391055;32;36002;-68
2023/03/02 01:48:41;;;;;;;;;;;;;;;3.92;65.28;100960.75;5395248;32;34705;-74
2023/03/02 01:51:45;;;;;;;;;;;;;;;3.92;64.51;100968.56;5387677;32;45345;-67
2023/03/02 01:54:48;;;;;;;;;;;;;;;4.67;62.85;100969.13;5387456;32;36087;-76
2023/03/02 01:57:51;;;;;;;;;;;;;;;4.60;63.25;100965.69;5396768;32;36834;-68
2023/03/02 02:00:53;;;;;;;;;;;;;;;4.50;63.05;100957.91;5393849;32;35329;-68
2023/03/02 02:03:55;;;;;;;;;;;;;;;4.05;64.70;100963.31;5393621;32;36099;-76
2023/03/02 02:07:01;;;;;;;;;;;;;;;3.84;64.74;100954.72;5406148;32;35901;-68
2023/03/02 02:10:04;;;;;;;;;;;;;;;3.67;65.64;100952.13;5387573;32;35101;-69
2023/03/02 02:13:09;;;;;;;;;;;;;;;4.00;64.10;100944.28;5380572;32;35404;-68
2023/03/02 02:16:11;;;;;;;;;;;;;;;4.16;62.71;100952.88;5406675;32;36154;-76
2023/03/02 02:19:13;;;;;;;;;;;;;;;4.11;63.49;100954.63;5377404;32;43720;-68
2023/03/02 02:22:16;;;;;;;;;;;;;;;3.84;63.33;100939.97;5408804;32;36788;-76
2023/03/02 02:25:21;;;;;;;;;;;;;;;3.71;63.92;100928.75;5375546;32;36044;-68
2023/03/02 02:28:43;;;;;;;;;;;;;;;4.26;62.27;100940.72;5407923;32;35294;-76
2023/03/02 02:31:46;;;;;;;;;;;;;;;3.75;63.33;100943.47;5401043;32;47208;-75
2023/03/02 02:34:51;;;;;;;;;;;;;;;3.63;64.03;100938.28;5383546;32;35481;-76
2023/03/02 02:37:54;;;;;;;;;;;;;;;3.47;64.25;100942.63;5411794;32;35423;-75
2023/03/02 02:40:57;;;;;;;;;;;;;;;3.83;63.26;100942.59;5372523;32;35303;-68
2023/03/02 02:43:59;;;;;;;;;;;;;;;4.26;62.34;100935.50;5378005;32;35215;-68
2023/03/02 02:47:01;;;;;;;;;;;;;;;4.15;62.25;100932.94;5387599;32;35557;-76
2023/03/02 02:50:03;;;;;;;;;;;;;;;4.22;61.77;100937.22;5384875;32;35229;-68
2023/03/02 02:53:21;;;;;;;;;;;;;;;3.78;63.16;100937.38;5393164;32;35601;-76
2023/03/02 02:56:27;;;;;;;;;;;;;;;4.11;62.37;100930.34;5394195;32;34999;-69
2023/03/02 02:59:36;;;;;;;;;;;;;;;4.15;62.02;100934.69;5387420;32;35890;-77
2023/03/02 03:02:39;;;;;;;;;;;;;;;4.60;59.98;100925.75;5384194;32;36337;-76
2023/03/02 03:05:41;;;;;;;;;;;;;;;3.92;62.38;100927.81;5368961;32;34933;-75
2023/03/02 03:08:43;;;;;;;;;;;;;;;3.79;63.28;100924.38;5400113;32;44868;-75
2023/03/02 03:11:45;;;;;;;;;;;;;;;4.00;62.93;100920.00;5398604;32;35795;-66
2023/03/02 03:14:47;;;;;;;;;;;;;;;3.67;63.45;100921.84;5392430;32;36304;-68
2023/03/02 03:17:53;;;;;;;;;;;;;;;4.01;62.71;100921.72;5389997;32;35480;-76
2023/03/02 03:20:55;;;;;;;;;;;;;;;4.03;63.23;100933.84;5404359;32;35397;-67
2023/03/02 03:23:57;;;;;;;;;;;;;;;3.65;63.23;100925.28;5389373;32;35417;-67
2023/03/02 03:27:00;;;;;;;;;;;;;;;3.29;65.33;100927.09;5397213;32;35560;-76
2023/03/02 03:30:02;;;;;;;;;;;;;;;3.59;64.45;100917.50;5389240;32;35838;-76
2023/03/02 03:33:04;;;;;;;;;;;;;;;3.58;64.06;100919.25;5382748;32;35569;-68
2023/03/02 03:36:06;;;;;;;;;;;;;;;3.86;62.16;100920.03;5408182;32;34723;-68
2023/03/02 03:39:08;;;;;;;;;;;;;;;3.51;63.15;100927.91;5396263;32;35989;-76
2023/03/02 03:42:10;;;;;;;;;;;;;;;3.83;61.87;100932.19;5391719;32;35362;-77
2023/03/02 03:45:12;;;;;;;;;;;;;;;4.88;57.62;100937.72;5376754;32;38441;-76
2023/03/02 03:48:14;;;;;;;;;;;;;;;4.26;59.43;100949.37;5394763;32;37188;-76
2023/03/02 03:51:16;;;;;;;;;;;;;;;4.77;58.15;100939.56;5400762;32;34323;-69
2023/03/02 03:54:18;;;;;;;;;;;;;;;4.46;58.88;100945.81;5396290;32;35305;-68
2023/03/02 03:57:20;;;;;;;;;;;;;;;3.97;59.96;100951.19;5407240;32;35360;-68
2023/03/02 04:00:23;;;;;;;;;;;;;;;4.62;57.85;100950.03;5378326;32;34849;-68
2023/03/02 04:03:25;;;;;;;;;;;;;;;3.68;61.33;100948.69;5405554;32;35089;-68
2023/03/02 04:06:27;;;;;;;;;;;;;;;3.92;60.26;100952.94;5392736;32;35286;-68
2023/03/02 04:09:31;;;;;;;;;;;;;;;4.14;59.80;100952.03;5398309;32;34824;-76
2023/03/02 04:12:35;;;;;;;;;;;;;;;4.47;59.23;100945.78;5402021;32;36008;-77
2023/03/02 04:15:37;;;;;;;;;;;;;;;4.58;58.26;100943.16;5392679;32;35781;-77
2023/03/02 04:18:39;;;;;;;;;;;;;;;4.97;56.81;100946.38;5407737;32;35560;-76
2023/03/02 04:21:43;;;;;;;;;;;;;;;4.99;56.69;100940.25;5391448;32;35909;-68
2023/03/02 04:24:46;;;;;;;;;;;;;;;5.15;56.28;100941.87;5401856;32;46944;-77
2023/03/02 04:27:48;;;;;;;;;;;;;;;5.27;55.71;100938.28;5393260;32;35359;-68
2023/03/02 04:30:50;;;;;;;;;;;;;;;4.93;56.25;100942.91;5394921;32;36076;-75
2023/03/02 04:33:52;;;;;;;;;;;;;;;4.09;58.66;100943.38;5410593;32;35445;-79
2023/03/02 04:36:54;;;;;;;;;;;;;;;4.00;58.62;100944.28;5394391;32;35706;-67
2023/03/02 04:39:56;;;;;;;;;;;;;;;3.92;59.93;100939.94;5393721;32;35388;-68
2023/03/02 04:42:58;;;;;;;;;;;;;;;3.93;59.60;100936.47;5374170;32;36286;-76
2023/03/02 04:46:00;;;;;;;;;;;;;;;3.78;59.74;100940.84;5398634;32;35628;-68
2023/03/02 04:49:03;;;;;;;;;;;;;;;3.62;59.96;100931.38;5367106;32;36116;-75
2023/03/02 04:52:05;;;;;;;;;;;;;;;3.86;59.99;100929.56;5398043;32;35878;-76
2023/03/02 04:55:07;;;;;;;;;;;;;;;3.84;59.29;100926.97;5406880;32;36346;-75
2023/03/02 04:58:09;;;;;;;;;;;;;;;3.65;60.14;100931.34;5397888;32;35270;-76
2023/03/02 05:01:11;;;;;;;;;;;;;;;4.37;58.12;100930.22;5393940;32;35252;-68
2023/03/02 05:04:13;;;;;;;;;;;;;;;4.04;58.19;100930.38;5391959;32;48207;-76
2023/03/02 05:07:15;;;;;;;;;;;;;;;4.89;55.75;100931.66;5391057;32;35137;-76
2023/03/02 05:10:18;;;;;;;;;;;;;;;5.22;53.99;100940.09;5394025;32;36138;-68
2023/03/02 05:13:20;;;;;;;;;;;;;;;4.02;57.14;100926.06;5386457;32;35762;-68
2023/03/02 05:16:22;;;;;;;;;;;;;;;4.33;56.91;100935.47;5399657;32;36271;-77
2023/03/02 05:19:24;;;;;;;;;;;;;;;4.33;56.13;100932.84;5383283;32;34788;-70
2023/03/02 05:22:26;;;;;;;;;;;;;;;4.68;55.26;100933.53;5398693;32;35416;-68
2023/03/02 05:25:28;;;;;;;;;;;;;;;4.42;54.60;100931.94;5397237;32;35490;-77
2023/03/02 05:28:30;;;;;;;;;;;;;;;4.26;54.81;100928.56;5409640;32;36194;-78
2023/03/02 05:31:34;;;;;;;;;;;;;;;4.71;54.27;100931.78;5395473;32;34900;-76
2023/03/02 05:34:36;;;;;;;;;;;;;;;4.30;54.07;100934.59;5384687;32;35056;-78
2023/03/02 05:37:41;;;;;;;;;;;;;;;4.39;54.55;100941.50;5412171;32;35802;-69
2023/03/02 05:40:43;;;;;;;;;;;;;;;4.34;54.75;100945.00;5388516;32;44684;-76
2023/03/02 05:43:45;;;;;;;;;;;;;;;4.23;54.66;100949.37;5363428;32;35761;-68
2023/03/02 05:46:48;;;;;;;;;;;;;;;4.87;53.32;100946.41;5390198;32;36441;-69
2023/03/02 05:49:50;;;;;;;;;;;;;;;4.52;54.41;100958.78;5399114;32;35760;-69
2023/03/02 05:52:52;;;;;;;;;;;;;;;5.80;50.71;100946.50;5403045;32;35440;-67
2023/03/02 05:55:54;;;;;;;;;;;;;;;5.36;51.88;100938.22;5379919;32;35642;-67
2023/03/02 05:58:55;;;;;;;;;;;;;;;5.76;50.21;100940.44;5390183;32;35382;-75
2023/03/02 06:01:58;;;;;;;;;;;;;;;5.41;51.48;100952.09;5389108;32;35172;-77
2023/03/02 06:05:00;;;;;;;;;;;;;;;4.93;53.04;100958.53;5407808;32;35346;-68
2023/03/02 06:08:02;;;;;;;;;;;;;;;4.64;54.99;100958.72;5395931;32;34890;-78
2023/03/02 06:11:04;;;;;;;;;;;;;;;5.27;53.25;100958.28;5401778;32;35456;-79
2023/03/02 06:14:06;;;;;;;;;;;;;;;6.02;51.56;100949.75;5399302;32;34919;-68
2023/03/02 06:17:07;;;;;;;;;;;;;;;7.76;47.30;100944.50;5396574;32;34644;-77
2023/03/02 06:20:10;;;;;;;;;;;;;;;9.14;43.66;100948.53;5404306;32;35313;-76
2023/03/02 06:23:12;;;;;;;;;;;;;;;9.10;43.07;100954.78;5380991;32;34791;-77
2023/03/02 06:26:14;;;;;;;;;;;;;;;8.54;43.30;100962.16;5407986;32;45023;-68
2023/03/02 06:29:16;;;;;;;;;;;;;;;8.93;43.10;100947.31;5393613;32;34625;-76
2023/03/02 06:32:18;;;;;;;;;;;;;;;8.47;43.56;100960.56;5395440;32;37903;-76
2023/03/02 06:35:22;;;;;;;;;;;;;;;8.45;43.01;100957.12;5384501;32;37643;-69
2023/03/02 06:38:24;;;;;;;;;;;;;;;7.62;44.24;100970.06;5386275;32;35579;-76
2023/03/02 06:41:26;;;;;;;;;;;;;;;8.55;41.81;100963.88;5393769;32;35881;-68
2023/03/02 06:44:28;;;;;;;;;;;;;;;8.70;40.92;100967.09;5368028;32;36119;-68
2023/03/02 06:47:32;;;;;;;;;;;;;;;9.64;39.46;100966.53;5388910;32;36012;-78
2023/03/02 06:50:34;;;;;;;;;;;;;;;9.39;39.04;100971.56;5370680;32;35934;-74
2023/03/02 06:53:36;;;;;;;;;;;;;;;10.57;37.23;100969.25;5394234;32;34656;-68
2023/03/02 06:56:37;;;;;;;;;;;;;;;9.80;38.12;100969.66;5392249;32;34986;-70
2023/03/02 06:59:41;;;;;;;;;;;;;;;9.58;38.44;100961.47;5387557;32;34545;-72
2023/03/02 07:02:44;;;;;;;;;;;;;;;8.91;39.30;100979.69;5387523;32;45333;-73
2023/03/02 07:05:47;;;;;;;;;;;;;;;11.68;34.89;100962.16;5378554;32;35133;-68
2023/03/02 07:08:49;;;;;;;;;;;;;;;11.34;34.89;100965.94;5402893;32;35174;-65
2023/03/02 07:11:51;;;;;;;;;;;;;;;10.04;37.37;100976.84;5377579;32;36121;-71
2023/03/02 07:14:53;;;;;;;;;;;;;;;10.19;37.35;100967.69;5375250;32;34805;-67
2023/03/02 07:17:55;;;;;;;;;;;;;;;11.35;34.84;100970.28;5386536;32;34769;-69
2023/03/02 07:20:57;;;;;;;;;;;;;;;12.81;32.35;100955.34;5376261;32;36178;-66
2023/03/02 07:23:59;;;;;;;;;;;;;;;12.66;31.42;100963.88;5402351;32;34777;-76
2023/03/02 07:27:01;;;;;;;;;;;;;;;11.22;34.18;100971.59;5373829;32;35000;-65
2023/03/02 07:30:04;;;;;;;;;;;;;;;12.28;32.20;100958.25;5394595;32;36043;-65
2023/03/02 07:33:06;;;;;;;;;;;;;;;13.46;29.66;100959.78;5373620;32;34985;-69
2023/03/02 07:36:07;;;;;;;;;;;;;;;12.66;31.01;100961.22;5393663;32;34701;-67
2023/03/02 07:39:09;;;;;;;;;;;;;;;11.05;31.53;100971.25;5402830;32;34571;-67
2023/03/02 07:42:11;;;;;;;;;;;;;;;12.28;29.65;100957.41;5360856;32;35387;-74
2023/03/02 07:45:15;;;;;;;;;;;;;;;12.52;28.37;100960.91;5391331;32;44549;-75
2023/03/02 07:48:18;;;;;;;;;;;;;;;13.70;27.57;100949.09;5391476;32;36852;-74
2023/03/02 07:51:20;;;;;;;;;;;;;;;11.89;29.15;100955.31;5389480;32;35981;-74
2023/03/02 07:54:25;;;;;;;;;;;;;;;13.65;27.44;100941.34;5388615;32;36161;-74
2023/03/02 07:57:27;;;;;;;;;;;;;;;13.09;27.93;100951.63;5392454;32;35276;-77
2023/03/02 08:00:29;;;;;;;;;;;;;;;11.62;28.52;100957.94;5402998;32;35327;-68
2023/03/02 08:03:30;;;;;;;;;;;;;;;11.99;28.26;100942.69;5393579;32;34685;-66
2023/03/02 08:06:32;;;;;;;;;;;;;;;10.51;30.30;100954.50;5397051;32;34796;-69
2023/03/02 08:09:34;;;;;;;;;;;;;;;10.20;30.44;100953.66;5387789;32;36178;-76
2023/03/02 08:12:36;;;;;;;;;;;;;;;9.41;32.29;100962.75;5403331;32;34784;-81
2023/03/02 08:15:38;;;;;;;;;;;;;;;9.46;31.32;100970.50;5371525;32;34807;-82
2023/03/02 08:18:40;;;;;;;;;;;;;;;10.46;29.58;100960.81;5403606;32;34706;-66
2023/03/02 08:21:42;;;;;;;;;;;;;;;9.63;31.28;100967.47;5383502;32;36912;-73
2023/03/02 08:24:44;;;;;;;;;;;;;;;10.16;30.14;100960.75;5390730;32;45061;-70
2023/03/02 08:27:46;;;;;;;;;;;;;;;9.21;31.84;100955.37;5403686;32;35612;-73
2023/03/02 08:30:55;;;;;;;;;;;;;;;10.24;30.49;100964.06;5390647;32;36598;-81
2023/03/02 08:33:58;;;;;;;;;;;;;;;10.28;30.06;100959.56;5400616;32;34974;-72
2023/03/02 08:37:00;;;;;;;;;;;;;;;10.16;30.57;100952.00;5381415;32;34733;-78
2023/03/02 08:40:02;;;;;;;;;;;;;;;10.20;30.82;100949.25;5380114;32;34778;-78
2023/03/02 08:43:04;;;;;;;;;;;;;;;8.99;32.38;100966.41;5387522;32;34942;-79
2023/03/02 08:46:09;;;;;;;;;;;;;;;8.60;33.65;100958.56;5394792;32;35516;-87
2023/03/02 08:49:11;;;;;;;;;;;;;;;8.36;33.92;100957.31;5391398;32;35510;-75
2023/03/02 08:52:14;;;;;;;;;;;;;;;9.22;32.53;100949.25;5391333;32;46218;-75
2023/03/02 08:55:18;;;;;;;;;;;;;;;10.47;30.79;100938.87;5393501;32;34801;-75
2023/03/02 08:58:20;;;;;;;;;;;;;;;9.10;33.19;100951.28;5386353;32;34805;-74
2023/03/02 09:01:24;;;;;;;;;;;;;;;8.94;32.99;100942.91;5392230;32;36466;-72
2023/03/02 09:04:26;;;;;;;;;;;;;;;9.21;32.79;100941.41;5407589;32;35096;-72
2023/03/02 09:07:29;;;;;;;;;;;;;;;9.78;31.76;100941.66;5393613;32;35439;-74
2023/03/02 09:10:31;;;;;;;;;;;;;;;9.77;31.81;100939.06;5397854;32;36216;-73
2023/03/02 09:13:33;;;;;;;;;;;;;;;9.57;32.42;100931.72;5388367;32;33858;-73
2023/03/02 09:16:35;;;;;;;;;;;;;;;9.66;32.17;100931.50;5397408;32;36059;-72
2023/03/02 09:19:40;;;;;;;;;;;;;;;9.75;32.41;100928.63;5396509;32;34720;-74
2023/03/02 09:22:49;;;;;;;;;;;;;;;10.34;31.51;100921.75;5375192;32;47063;-72
2023/03/02 09:25:51;;;;;;;;;;;;;;;10.78;30.74;100918.63;5404045;32;34873;-72
2023/03/02 09:28:54;;;;;;;;;;;;;;;10.03;31.81;100922.59;5379184;32;35495;-74
2023/03/02 09:31:56;;;;;;;;;;;;;;;10.56;30.97;100914.94;5394445;32;35575;-74
2023/03/02 09:34:58;;;;;;;;;;;;;;;10.46;30.83;100913.50;5389118;32;34808;-74
2023/03/02 09:38:00;;;;;;;;;;;;;;;10.58;30.84;100908.75;5391869;32;38632;-72
2023/03/02 09:41:18;;;;;;;;;;;;;;;10.70;31.05;100912.75;5399699;32;34744;-74
2023/03/02 09:44:41;;;;;;;;;;;;;;;10.91;30.64;100912.97;5372201;32;44909;-74
2023/03/02 09:47:51;;;;;;;;;;;;;;;11.14;30.26;100910.44;5389371;32;45110;-72
2023/03/02 09:51:10;;;;;;;;;;;;;;;11.37;29.77;100904.44;5390248;32;35027;-73
2023/03/02 09:54:14;;;;;;;;;;;;;;;10.68;30.76;100905.81;5382365;32;35459;-74
2023/03/02 09:57:21;;;;;;;;;;;;;;;9.91;32.33;100899.31;5409778;32;47836;-72
2023/03/02 10:00:26;;;;;;;;;;;;;;;11.01;30.82;100903.88;5394660;32;33758;-73
2023/03/02 10:03:39;;;;;;;;;;;;;;;11.27;30.46;100895.09;5392715;32;34764;-73
2023/03/02 10:06:42;;;;;;;;;;;;;;;11.46;30.18;100892.72;5377100;32;34687;-74
2023/03/02 10:09:44;;;;;;;;;;;;;;;10.68;31.24;100896.16;5394302;32;44636;-81
2023/03/02 10:13:05;;;;;;;;;;;;;;;11.17;30.42;100897.22;5376729;32;38262;-75
2023/03/02 10:16:11;;;;;;;;;;;;;;;11.44;30.11;100891.91;5380935;32;34687;-71
2023/03/02 10:19:13;;;;;;;;;;;;;;;13.44;28.25;100876.28;5401241;32;45356;-79
2023/03/02 10:22:26;;;;;;;;;;;;;;;15.99;24.50;100871.88;5384745;32;36582;-88
2023/03/02 10:25:47;;;;;;;;;;;;;;;18.09;21.85;100860.53;5366256;32;36355;-83
2023/03/02 10:28:53;;;;;;;;;;;;;;;19.65;19.82;100858.25;5383195;32;46629;-81
2023/03/02 10:32:11;;;;;;;;;;;;;;;18.44;20.59;100852.97;5375286;32;36015;-77
2023/03/02 10:35:15;;;;;;;;;;;;;;;22.49;17.41;100846.63;5382195;32;43617;-84
2023/03/02 10:38:21;;;;;;;;;;;;;;;19.12;20.08;100850.25;5377094;32;35259;-82
2023/03/02 10:41:31;;;;;;;;;;;;;;;18.71;20.47;100854.81;5384799;32;34984;-82
2023/03/02 10:44:36;;;;;;;;;;;;;;;23.05;16.69;100841.09;5369234;32;36789;-77
2023/03/02 10:47:38;;;;;;;;;;;;;;;23.31;16.20;100842.41;5377612;32;34699;-82
2023/03/02 10:50:41;;;;;;;;;;;;;;;22.36;17.85;100838.75;5400378;32;34543;-73
2023/03/02 10:53:43;;;;;;;;;;;;;;;22.50;18.20;100827.75;5380927;32;44646;-94
2023/03/02 10:56:49;;;;;;;;;;;;;;;21.49;18.51;100821.56;5405108;32;34956;-84
2023/03/02 10:59:51;;;;;;;;;;;;;;;22.90;17.67;100813.75;5382164;32;35209;-89
2023/03/02 11:02:57;;;;;;;;;;;;;;;23.79;17.06;100815.03;5380661;32;34702;-91
2023/03/02 11:06:09;;;;;;;;;;;;;;;20.91;19.76;100809.97;5403894;32;36302;-91
2023/03/02 11:09:12;;;;;;;;;;;;;;;19.99;20.84;100825.56;5396961;32;35331;-89
2023/03/02 11:12:14;;;;;;;;;;;;;;;21.63;19.12;100797.25;5390541;32;45852;-81
2023/03/02 11:15:18;;;;;;;;;;;;;;;23.32;18.46;100805.75;5373686;32;36440;-84
2023/03/02 11:18:24;;;;;;;;;;;;;;;19.88;21.73;100811.28;5403756;32;36408;-81
2023/03/02 11:21:32;;;;;;;;;;;;;;;23.23;18.19;100793.94;5382182;32;35199;-83
2023/03/02 11:24:36;;;;;;;;;;;;;;;20.22;21.59;100805.25;5391000;32;33553;-81
2023/03/02 11:27:38;;;;;;;;;;;;;;;19.47;22.58;100796.37;5395266;32;35264;-77
2023/03/02 11:30:44;;;;;;;;;;;;;;;17.46;24.99;100800.59;5377791;32;34857;-83
2023/03/02 11:33:53;;;;;;;;;;;;;;;20.47;21.83;100796.28;5403976;32;45148;-81
2023/03/02 11:37:02;;;;;;;;;;;;;;;19.53;22.85;100792.41;5393115;32;34681;-84
2023/03/02 11:40:07;;;;;;;;;;;;;;;19.64;23.28;100790.75;5377154;32;34874;-70
2023/03/02 11:43:10;;;;;;;;;;;;;;;17.84;25.43;100787.62;5375426;32;34711;-79
2023/03/02 11:46:13;;;;;;;;;;;;;;;18.87;24.49;100779.16;5378081;32;34654;-70
2023/03/02 11:49:24;;;;;;;;;;;;;;;17.35;26.90;100787.13;5376742;32;46903;-77
2023/03/02 11:52:27;;;;;;;;;;;;;;;17.41;26.98;100784.09;5381369;32;36210;-88
2023/03/02 11:55:32;;;;;;;;;;;;;;;19.14;24.72;100771.09;5375386;32;36085;-89
2023/03/02 11:58:34;;;;;;;;;;;;;;;21.43;22.12;100764.06;5379465;32;34763;-77
2023/03/02 12:01:39;;;;;;;;;;;;;;;21.23;21.85;100762.06;5391141;32;34963;-75
2023/03/02 12:04:43;;;;;;;;;;;;;;;19.87;24.04;100766.91;5385177;32;34544;-88
2023/03/02 12:07:55;;;;;;;;;;;;;;;21.49;22.76;100760.06;5380515;32;46218;-89
2023/03/02 12:10:58;;;;;;;;;;;;;;;19.98;24.71;100765.19;5385074;32;34690;-90
2023/03/02 12:14:03;;;;;;;;;;;;;;;20.33;24.70;100752.88;5371928;32;35141;-90
2023/03/02 12:17:35;;;;;;;;;;;;;;;19.61;25.82;100750.09;5379248;32;34557;-88
2023/03/02 12:20:40;;;;;;;;;;;;;;;18.84;27.22;100763.38;5391639;32;36258;-90
2023/03/02 12:23:48;;;;;;;;;;;;;;;19.77;25.65;100755.19;5369557;32;36568;-89
2023/03/02 12:26:59;;;;;;;;;;;;;;;18.35;27.86;100752.44;5391610;32;45074;-89
2023/03/02 12:30:08;;;;;;;;;;;;;;;18.40;27.84;100737.88;5382163;32;34769;-88
2023/03/02 12:33:19;;;;;;;;;;;;;;;18.26;28.41;100755.72;5367085;32;43680;-90
2023/03/02 12:36:23;;;;;;;;;;;;;;;21.08;24.43;100732.06;5399335;32;34680;-88
2023/03/02 12:39:49;;;;;;;;;;;;;;;20.88;24.60;100738.09;5381811;32;35177;-89
2023/03/02 12:42:53;;;;;;;;;;;;;;;20.27;24.80;100739.00;5359237;32;46333;-89
2023/03/02 12:46:05;;;;;;;;;;;;;;;20.71;24.68;100732.19;5380203;32;34837;-90
2023/03/02 12:49:35;;;;;;;;;;;;;;;20.81;24.81;100724.34;5379919;32;33590;-86
2023/03/02 12:52:37;;;;;;;;;;;;;;;19.74;25.71;100726.94;5383660;32;34662;-86
2023/03/02 12:55:39;;;;;;;;;;;;;;;19.33;26.64;100730.69;5380225;32;34675;-73
2023/03/02 12:58:47;;;;;;;;;;;;;;;19.66;26.39;100715.97;5390135;32;34545;-75
2023/03/02 13:01:49;;;;;;;;;;;;;;;19.41;26.58;100720.34;5389758;32;44599;-75
2023/03/02 13:04:53;;;;;;;;;;;;;;;18.83;27.15;100711.06;5399123;32;35260;-75
2023/03/02 13:07:59;;;;;;;;;;;;;;;20.78;24.59;100700.53;5409304;32;36274;-75
2023/03/02 13:11:01;;;;;;;;;;;;;;;20.95;24.42;100693.91;5382222;32;34980;-73
2023/03/02 13:14:16;;;;;;;;;;;;;;;24.97;19.87;100680.72;5394035;32;34733;-73
2023/03/02 13:17:28;;;;;;;;;;;;;;;25.68;18.73;100683.69;5377000;32;45268;-73
2023/03/02 13:20:30;;;;;;;;;;;;;;;23.85;20.25;100691.03;5401267;32;35972;-73
2023/03/02 13:23:32;;;;;;;;;;;;;;;24.10;20.19;100673.56;5388872;32;36640;-72
2023/03/02 13:26:35;;;;;;;;;;;;;;;24.71;19.73;100678.63;5390074;32;36003;-74
2023/03/02 13:29:37;;;;;;;;;;;;;;;24.59;19.58;100679.78;5400698;32;37731;-75
2023/03/02 13:32:39;;;;;;;;;;;;;;;27.17;17.16;100673.12;5393167;32;35959;-75
2023/03/02 13:35:43;;;;;;;;;;;;;;;21.95;21.84;100686.81;5373450;32;34457;-74
2023/03/02 13:38:47;;;;;;;;;;;;;;;27.51;16.77;100665.03;5384844;32;44706;-83
2023/03/02 13:41:56;;;;;;;;;;;;;;;26.62;17.37;100653.69;5364342;32;35415;-77
2023/03/02 13:45:30;;;;;;;;;;;;;;;27.72;16.17;100655.66;5375742;32;35232;-76
2023/03/02 13:48:32;;;;;;;;;;;;;;;28.44;15.67;100646.00;5378288;32;34844;-79
2023/03/02 13:51:35;;;;;;;;;;;;;;;28.32;15.80;100637.37;5403479;32;35349;-82
2023/03/02 13:54:39;;;;;;;;;;;;;;;26.97;16.93;100642.78;5373883;32;34903;-80
2023/03/02 13:57:41;;;;;;;;;;;;;;;25.53;18.59;100640.31;5392432;32;34603;-78
2023/03/02 14:00:43;;;;;;;;;;;;;;;28.93;15.46;100628.91;5393297;32;45179;-71
2023/03/02 14:03:45;;;;;;;;;;;;;;;29.09;15.31;100624.25;5389326;32;34841;-75
2023/03/02 14:06:48;;;;;;;;;;;;;;;27.05;16.53;100635.75;5392038;32;35482;-75
2023/03/02 14:09:50;;;;;;;;;;;;;;;28.19;15.99;100606.44;5374715;32;34790;-76
2023/03/02 14:12:58;;;;;;;;;;;;;;;26.61;17.30;100612.41;5372318;32;854447;-74
2023/03/02 14:16:02;;;;;;;;;;;;;;;24.29;19.24;100619.00;5391664;32;35453;-71
2023/03/02 14:19:08;;;;;;;;;;;;;;;22.02;22.15;100621.09;5393388;32;34805;-76
2023/03/02 14:22:11;;;;;;;;;;;;;;;20.19;24.34;100620.47;5382140;32;35804;-78
2023/03/02 14:25:15;;;;;;;;;;;;;;;17.80;27.90;100628.41;5381289;32;45496;-72
2023/03/02 14:28:20;;;;;;;;;;;;;;;19.13;26.09;100617.53;5392077;32;35251;-77
2023/03/02 14:31:23;;;;;;;;;;;;;;;18.20;27.57;100615.97;5397927;32;34954;-74
2023/03/02 14:34:25;;;;;;;;;;;;;;;17.85;28.23;100616.50;5387555;32;36786;-74
2023/03/02 14:37:27;;;;;;;;;;;;;;;15.43;32.36;100635.50;5384144;32;35595;-72
2023/03/02 14:40:29;;;;;;;;;;;;;;;16.63;30.60;100616.22;5391960;32;34638;-77
2023/03/02 14:43:32;;;;;;;;;;;;;;;17.11;29.75;100616.81;5377411;32;35073;-72
2023/03/02 14:46:34;;;;;;;;;;;;;;;17.33;29.24;100619.84;5388112;32;34262;-78
2023/03/02 14:49:36;;;;;;;;;;;;;;;16.53;30.55;100612.41;5390515;32;34628;-77
2023/03/02 14:52:55;;;;;;;;;;;;;;;16.46;30.65;100609.25;5382130;32;34971;-72
2023/03/02 14:55:57;;;;;;;;;;;;;;;15.62;32.32;100614.16;5361637;32;35268;-73
2023/03/02 14:58:59;;;;;;;;;;;;;;;15.28;33.36;100619.63;5375272;32;36380;-72
2023/03/02 15:02:01;;;;;;;;;;;;;;;15.95;32.23;100610.53;5385549;32;34958;-74
2023/03/02 15:05:19;;;;;;;;;;;;;;;15.12;33.38;100617.78;5384147;32;44713;-78
2023/03/02 15:08:22;;;;;;;;;;;;;;;15.94;31.86;100604.38;5369109;32;35356;-78
2023/03/02 15:11:24;;;;;;;;;;;;;;;14.78;33.59;100612.59;5398900;32;35239;-76
2023/03/02 15:14:26;;;;;;;;;;;;;;;15.07;33.51;100614.56;5368104;32;35376;-74
2023/03/02 15:17:28;;;;;;;;;;;;;;;13.91;35.58;100609.06;5365304;32;34753;-74
2023/03/02 15:20:30;;;;;;;;;;;;;;;14.81;33.94;100607.13;5384856;32;36150;-78
2023/03/02 15:23:32;;;;;;;;;;;;;;;14.11;35.04;100608.12;5388801;32;35419;-74
2023/03/02 15:26:34;;;;;;;;;;;;;;;14.82;33.56;100614.16;5382775;32;37536;-78
2023/03/02 15:29:36;;;;;;;;;;;;;;;14.93;33.38;100614.41;5379426;32;34783;-73
2023/03/02 15:32:38;;;;;;;;;;;;;;;15.44;32.68;100613.37;5397265;32;34883;-74
2023/03/02 15:35:40;;;;;;;;;;;;;;;15.96;31.87;100609.59;5376755;32;35244;-72
2023/03/02 15:38:42;;;;;;;;;;;;;;;15.39;32.62;100617.19;5362276;32;34684;-72
2023/03/02 15:41:44;;;;;;;;;;;;;;;15.27;32.84;100620.56;5382950;32;47011;-73
2023/03/02 15:44:46;;;;;;;;;;;;;;;13.86;35.28;100627.81;5365230;32;36080;-79
2023/03/02 15:47:48;;;;;;;;;;;;;;;14.51;34.22;100625.47;5400187;32;36406;-71
2023/03/02 15:50:56;;;;;;;;;;;;;;;14.74;33.96;100624.25;5384780;32;36121;-79